sensor_id;sensor_type;location;lat;lon;timestamp;temperature;humidity
38866;DHT22;62686;48.984;8.394;2023-03-01T00:01:24;-1.30;99.90
38866;DHT22;62686;48.984;8.394;2023-03-01T00:03:53;-1.30;99.90
38866;DHT22;62686;48.984;8.394;2023-03-01T00:06:22;-1.40;99.90
38866;DHT22;62686;48.984;8.394;2023-03-01T00:08:52;-1.40;99.90
38866;DHT22;62686;48.984;8.394;2023-03-01T00:11:21;-1.40;99.90
38866;DHT22;62686;48.984;8.394;2023-03-01T00:13:52;-1.40;99.90
38866;DHT22;62686;48.984;8.394;2023-03-01T00:16:22;-1.40;99.90
38866;DHT22;62686;48.984;8.394;2023-03-01T00:18:51;-1.40;99.90
38866;DHT22;62686;48.984;8.394;2023-03-01T00:21:20;-1.50;99.90
38866;DHT22;62686;48.984;8.394;2023-03-01T00:23:49;-1.60;99.90
38866;DHT22;62686;48.984;8.394;2023-03-01T00:26:20;-1.60;99.90
38866;DHT22;62686;48.984;8.394;2023-03-01T00:28:48;-1.50;99.90
38866;DHT22;62686;48.984;8.394;2023-03-01T00:31:19;-1.40;99.90
38866;DHT22;62686;48.984;8.394;2023-03-01T00:33:47;-1.40;99.90
38866;DHT22;62686;48.984;8.394;2023-03-01T00:36:16;-1.30;99.90
38866;DHT22;62686;48.984;8.394;2023-03-01T00:38:45;-1.40;99.90
38866;DHT22;62686;48.984;8.394;2023-03-01T00:41:16;-1.40;99.90
38866;DHT22;62686;48.984;8.394;2023-03-01T00:43:46;-1.30;99.90
38866;DHT22;62686;48.984;8.394;2023-03-01T00:46:18;-1.20;99.90
38866;DHT22;62686;48.984;8.394;2023-03-01T00:48:46;-1.30;99.90
38866;DHT22;62686;48.984;8.394;2023-03-01T00:51:17;-1.30;99.90
38866;DHT22;62686;48.984;8.394;2023-03-01T00:53:45;-1.40;99.90
38866;DHT22;62686;48.984;8.394;2023-03-01T00:56:15;-1.50;99.90
38866;DHT22;62686;48.984;8.394;2023-03-01T00:58:43;-1.50;99.90
38866;DHT22;62686;48.984;8.394;2023-03-01T01:01:15;-1.50;99.90
38866;DHT22;62686;48.984;8.394;2023-03-01T01:03:46;-1.50;99.90
38866;DHT22;62686;48.984;8.394;2023-03-01T01:06:20;-1.40;99.90
38866;DHT22;62686;48.984;8.394;2023-03-01T01:08:49;-1.50;99.90
38866;DHT22;62686;48.984;8.394;2023-03-01T01:11:18;-1.40;99.90
38866;DHT22;62686;48.984;8.394;2023-03-01T01:13:47;-1.50;99.90
38866;DHT22;62686;48.984;8.394;2023-03-01T01:16:18;-1.50;99.90
38866;DHT22;62686;48.984;8.394;2023-03-01T01:18:47;-1.70;99.90
38866;DHT22;62686;48.984;8.394;2023-03-01T01:21:18;-1.90;99.90
38866;DHT22;62686;48.984;8.394;2023-03-01T01:23:47;-1.90;99.90
38866;DHT22;62686;48.984;8.394;2023-03-01T01:26:17;-2.10;99.90
38866;DHT22;62686;48.984;8.394;2023-03-01T01:28:46;-2.20;99.90
38866;DHT22;62686;48.984;8.394;2023-03-01T01:31:16;-2.20;99.90
38866;DHT22;62686;48.984;8.394;2023-03-01T01:33:45;-2.10;99.90
38866;DHT22;62686;48.984;8.394;2023-03-01T01:36:13;-2.20;99.90
38866;DHT22;62686;48.984;8.394;2023-03-01T01:38:41;-2.20;99.90
38866;DHT22;62686;48.984;8.394;2023-03-01T01:41:11;-2.00;99.90
38866;DHT22;62686;48.984;8.394;2023-03-01T01:43:41;-2.00;99.90
38866;DHT22;62686;48.984;8.394;2023-03-01T01:46:19;-2.10;99.90
38866;DHT22;62686;48.984;8.394;2023-03-01T01:48:53;-2.10;99.90
38866;DHT22;62686;48.984;8.394;2023-03-01T01:51:27;-2.20;99.90
38866;DHT22;62686;48.984;8.394;2023-03-01T01:53:59;-2.30;99.90
38866;DHT22;62686;48.984;8.394;2023-03-01T01:56:29;-2.40;99.90
38866;DHT22;62686;48.984;8.394;2023-03-01T01:58:58;-2.40;99.90
38866;DHT22;62686;48.984;8.394;2023-03-01T02:01:28;-2.30;99.90
38866;DHT22;62686;48.984;8.394;2023-03-01T02:03:56;-2.20;99.90
38866;DHT22;62686;48.984;8.394;2023-03-01T02:06:29;-2.00;99.90
38866;DHT22;62686;48.984;8.394;2023-03-01T02:09:02;-1.90;99.90
38866;DHT22;62686;48.984;8.394;2023-03-01T02:11:31;-1.80;99.90
38866;DHT22;62686;48.984;8.394;2023-03-01T02:14:00;-1.70;99.90
38866;DHT22;62686;48.984;8.394;2023-03-01T02:16:29;-1.70;99.90
38866;DHT22;62686;48.984;8.394;2023-03-01T02:18:59;-1.60;99.90
38866;DHT22;62686;48.984;8.394;2023-03-01T02:21:37;-1.50;99.90
38866;DHT22;62686;48.984;8.394;2023-03-01T02:24:15;-1.30;99.90
38866;DHT22;62686;48.984;8.394;2023-03-01T02:26:50;-1.30;99.90
38866;DHT22;62686;48.984;8.394;2023-03-01T02:29:20;-1.30;99.90
38866;DHT22;62686;48.984;8.394;2023-03-01T02:31:49;-1.50;99.90
38866;DHT22;62686;48.984;8.394;2023-03-01T02:34:20;-1.60;99.90
38866;DHT22;62686;48.984;8.394;2023-03-01T02:36:52;-1.50;99.90
38866;DHT22;62686;48.984;8.394;2023-03-01T02:39:25;-1.50;99.90
38866;DHT22;62686;48.984;8.394;2023-03-01T02:41:56;-1.60;99.90
38866;DHT22;62686;48.984;8.394;2023-03-01T02:44:27;-1.40;99.90
38866;DHT22;62686;48.984;8.394;2023-03-01T02:46:56;-1.40;99.90
38866;DHT22;62686;48.984;8.394;2023-03-01T02:49:25;-1.30;99.90
38866;DHT22;62686;48.984;8.394;2023-03-01T02:55:01;-1.40;99.90
38866;DHT22;62686;48.984;8.394;2023-03-01T02:57:33;-1.40;99.90
38866;DHT22;62686;48.984;8.394;2023-03-01T03:00:05;-1.40;99.90
38866;DHT22;62686;48.984;8.394;2023-03-01T03:02:35;-1.40;99.90
38866;DHT22;62686;48.984;8.394;2023-03-01T03:05:07;-1.40;99.90
38866;DHT22;62686;48.984;8.394;2023-03-01T03:07:37;-1.50;99.90
38866;DHT22;62686;48.984;8.394;2023-03-01T03:10:09;-1.50;99.90
38866;DHT22;62686;48.984;8.394;2023-03-01T03:12:39;-1.50;99.90
38866;DHT22;62686;48.984;8.394;2023-03-01T03:15:10;-1.60;99.90
38866;DHT22;62686;48.984;8.394;2023-03-01T03:17:41;-1.70;99.90
38866;DHT22;62686;48.984;8.394;2023-03-01T03:20:13;-1.80;99.90
38866;DHT22;62686;48.984;8.394;2023-03-01T03:22:46;-1.90;99.90
38866;DHT22;62686;48.984;8.394;2023-03-01T03:25:15;-1.90;99.90
38866;DHT22;62686;48.984;8.394;2023-03-01T03:27:44;-1.90;99.90
38866;DHT22;62686;48.984;8.394;2023-03-01T03:30:17;-1.90;99.90
38866;DHT22;62686;48.984;8.394;2023-03-01T03:32:46;-1.80;99.90
38866;DHT22;62686;48.984;8.394;2023-03-01T03:35:20;-1.90;99.90
38866;DHT22;62686;48.984;8.394;2023-03-01T03:37:49;-1.90;99.90
38866;DHT22;62686;48.984;8.394;2023-03-01T03:40:31;-1.90;99.90
38866;DHT22;62686;48.984;8.394;2023-03-01T03:43:00;-1.80;99.90
38866;DHT22;62686;48.984;8.394;2023-03-01T03:45:30;-1.90;99.90
38866;DHT22;62686;48.984;8.394;2023-03-01T03:48:00;-2.00;99.90
38866;DHT22;62686;48.984;8.394;2023-03-01T03:50:28;-2.10;99.90
38866;DHT22;62686;48.984;8.394;2023-03-01T03:52:56;-2.10;99.90
38866;DHT22;62686;48.984;8.394;2023-03-01T03:55:24;-2.20;99.90
38866;DHT22;62686;48.984;8.394;2023-03-01T03:57:57;-2.30;99.90
38866;DHT22;62686;48.984;8.394;2023-03-01T04:00:30;-2.30;99.90
38866;DHT22;62686;48.984;8.394;2023-03-01T04:02:58;-2.30;99.90
38866;DHT22;62686;48.984;8.394;2023-03-01T04:05:27;-2.30;99.90
38866;DHT22;62686;48.984;8.394;2023-03-01T04:07:56;-2.30;99.90
38866;DHT22;62686;48.984;8.394;2023-03-01T04:10:34;-2.30;99.90
38866;DHT22;62686;48.984;8.394;2023-03-01T04:13:03;-2.30;99.90
38866;DHT22;62686;48.984;8.394;2023-03-01T04:15:33;-2.20;99.90
38866;DHT22;62686;48.984;8.394;2023-03-01T04:18:01;-2.30;99.90
38866;DHT22;62686;48.984;8.394;2023-03-01T04:20:32;-2.40;99.90
38866;DHT22;62686;48.984;8.394;2023-03-01T04:23:04;-2.40;99.90
38866;DHT22;62686;48.984;8.394;2023-03-01T04:25:38;-2.50;99.90
38866;DHT22;62686;48.984;8.394;2023-03-01T04:28:07;-2.50;99.90
38866;DHT22;62686;48.984;8.394;2023-03-01T04:30:38;-2.50;99.90
38866;DHT22;62686;48.984;8.394;2023-03-01T04:33:09;-2.60;99.90
38866;DHT22;62686;48.984;8.394;2023-03-01T04:35:38;-2.60;99.90
38866;DHT22;62686;48.984;8.394;2023-03-01T04:38:07;-2.60;99.90
38866;DHT22;62686;48.984;8.394;2023-03-01T04:40:36;-2.60;99.90
38866;DHT22;62686;48.984;8.394;2023-03-01T04:43:05;-2.60;99.90
38866;DHT22;62686;48.984;8.394;2023-03-01T04:45:33;-2.60;99.90
38866;DHT22;62686;48.984;8.394;2023-03-01T04:48:04;-2.60;99.90
38866;DHT22;62686;48.984;8.394;2023-03-01T04:50:32;-2.40;99.90
38866;DHT22;62686;48.984;8.394;2023-03-01T04:53:01;-2.40;99.90
38866;DHT22;62686;48.984;8.394;2023-03-01T04:55:29;-2.30;99.90
38866;DHT22;62686;48.984;8.394;2023-03-01T04:57:58;-2.30;99.90
38866;DHT22;62686;48.984;8.394;2023-03-01T05:00:26;-2.30;99.90
38866;DHT22;62686;48.984;8.394;2023-03-01T05:02:55;-2.40;99.90
38866;DHT22;62686;48.984;8.394;2023-03-01T05:05:28;-2.30;99.90
38866;DHT22;62686;48.984;8.394;2023-03-01T05:07:58;-2.30;99.90
38866;DHT22;62686;48.984;8.394;2023-03-01T05:10:28;-2.30;99.90
38866;DHT22;62686;48.984;8.394;2023-03-01T05:12:57;-2.40;99.90
38866;DHT22;62686;48.984;8.394;2023-03-01T05:15:26;-2.40;99.90
38866;DHT22;62686;48.984;8.394;2023-03-01T05:17:56;-2.50;99.90
38866;DHT22;62686;48.984;8.394;2023-03-01T05:20:29;-2.40;99.90
38866;DHT22;62686;48.984;8.394;2023-03-01T05:22:59;-2.40;99.90
38866;DHT22;62686;48.984;8.394;2023-03-01T05:25:33;-2.30;99.90
38866;DHT22;62686;48.984;8.394;2023-03-01T05:28:02;-2.40;99.90
38866;DHT22;62686;48.984;8.394;2023-03-01T05:30:31;-2.30;99.90
38866;DHT22;62686;48.984;8.394;2023-03-01T05:33:00;-2.20;99.90
38866;DHT22;62686;48.984;8.394;2023-03-01T05:35:32;-2.20;99.90
38866;DHT22;62686;48.984;8.394;2023-03-01T05:38:00;-2.20;99.90
38866;DHT22;62686;48.984;8.394;2023-03-01T05:40:28;-2.20;99.90
38866;DHT22;62686;48.984;8.394;2023-03-01T05:42:57;-2.20;99.90
38866;DHT22;62686;48.984;8.394;2023-03-01T05:45:26;-2.20;99.90
38866;DHT22;62686;48.984;8.394;2023-03-01T05:47:56;-2.00;99.90
38866;DHT22;62686;48.984;8.394;2023-03-01T05:50:25;-1.90;99.90
38866;DHT22;62686;48.984;8.394;2023-03-01T05:52:59;-1.90;99.90
38866;DHT22;62686;48.984;8.394;2023-03-01T05:55:28;-1.90;99.90
38866;DHT22;62686;48.984;8.394;2023-03-01T05:57:58;-1.80;99.90
38866;DHT22;62686;48.984;8.394;2023-03-01T06:00:27;-1.90;99.90
38866;DHT22;62686;48.984;8.394;2023-03-01T06:02:58;-1.80;99.90
38866;DHT22;62686;48.984;8.394;2023-03-01T06:05:27;-1.80;99.90
38866;DHT22;62686;48.984;8.394;2023-03-01T06:07:59;-1.80;99.90
38866;DHT22;62686;48.984;8.394;2023-03-01T06:10:28;-1.80;99.90
38866;DHT22;62686;48.984;8.394;2023-03-01T06:12:56;-1.80;99.90
38866;DHT22;62686;48.984;8.394;2023-03-01T06:15:25;-1.70;99.90
38866;DHT22;62686;48.984;8.394;2023-03-01T06:17:55;-1.70;99.90
38866;DHT22;62686;48.984;8.394;2023-03-01T06:20:27;-1.70;99.90
38866;DHT22;62686;48.984;8.394;2023-03-01T06:22:56;-1.70;99.90
38866;DHT22;62686;48.984;8.394;2023-03-01T06:25:26;-1.80;99.90
38866;DHT22;62686;48.984;8.394;2023-03-01T06:27:55;-1.70;99.90
38866;DHT22;62686;48.984;8.394;2023-03-01T06:30:25;-1.70;99.90
38866;DHT22;62686;48.984;8.394;2023-03-01T06:32:53;-1.70;99.90
38866;DHT22;62686;48.984;8.394;2023-03-01T06:35:28;-1.50;99.90
38866;DHT22;62686;48.984;8.394;2023-03-01T06:37:59;-1.50;99.90
38866;DHT22;62686;48.984;8.394;2023-03-01T06:40:30;-1.40;99.90
38866;DHT22;62686;48.984;8.394;2023-03-01T06:42:58;-1.40;99.90
38866;DHT22;62686;48.984;8.394;2023-03-01T06:45:27;-1.30;99.90
38866;DHT22;62686;48.984;8.394;2023-03-01T06:48:02;-1.30;99.90
38866;DHT22;62686;48.984;8.394;2023-03-01T06:50:31;-1.20;99.90
38866;DHT22;62686;48.984;8.394;2023-03-01T06:53:00;-1.20;99.90
38866;DHT22;62686;48.984;8.394;2023-03-01T06:55:30;-1.20;99.90
38866;DHT22;62686;48.984;8.394;2023-03-01T06:57:59;-1.20;99.90
38866;DHT22;62686;48.984;8.394;2023-03-01T07:00:28;-1.10;99.90
38866;DHT22;62686;48.984;8.394;2023-03-01T07:02:58;-1.00;99.90
38866;DHT22;62686;48.984;8.394;2023-03-01T07:05:27;-0.90;99.90
38866;DHT22;62686;48.984;8.394;2023-03-01T07:07:55;-0.80;99.90
38866;DHT22;62686;48.984;8.394;2023-03-01T07:10:23;-0.70;99.90
38866;DHT22;62686;48.984;8.394;2023-03-01T07:12:56;-0.70;99.90
38866;DHT22;62686;48.984;8.394;2023-03-01T07:15:25;-0.70;99.90
38866;DHT22;62686;48.984;8.394;2023-03-01T07:17:53;-0.60;99.90
38866;DHT22;62686;48.984;8.394;2023-03-01T07:20:21;-0.60;99.90
38866;DHT22;62686;48.984;8.394;2023-03-01T07:22:52;-0.50;99.90
38866;DHT22;62686;48.984;8.394;2023-03-01T07:25:20;-0.40;99.90
38866;DHT22;62686;48.984;8.394;2023-03-01T07:27:49;-0.40;99.90
38866;DHT22;62686;48.984;8.394;2023-03-01T07:30:20;-0.40;99.90
38866;DHT22;62686;48.984;8.394;2023-03-01T07:32:48;-0.30;99.90
38866;DHT22;62686;48.984;8.394;2023-03-01T07:35:16;-0.20;99.90
38866;DHT22;62686;48.984;8.394;2023-03-01T07:37:45;-0.20;99.90
38866;DHT22;62686;48.984;8.394;2023-03-01T07:40:13;-0.10;99.90
38866;DHT22;62686;48.984;8.394;2023-03-01T07:42:41;-0.10;99.90
38866;DHT22;62686;48.984;8.394;2023-03-01T07:45:10;0.10;99.90
38866;DHT22;62686;48.984;8.394;2023-03-01T07:47:42;0.20;99.90
38866;DHT22;62686;48.984;8.394;2023-03-01T07:50:10;0.20;99.90
38866;DHT22;62686;48.984;8.394;2023-03-01T07:52:40;0.20;99.90
38866;DHT22;62686;48.984;8.394;2023-03-01T07:55:08;0.30;99.90
38866;DHT22;62686;48.984;8.394;2023-03-01T07:57:37;0.40;99.90
38866;DHT22;62686;48.984;8.394;2023-03-01T08:00:06;0.40;99.90
38866;DHT22;62686;48.984;8.394;2023-03-01T08:02:35;0.40;99.90
38866;DHT22;62686;48.984;8.394;2023-03-01T08:05:05;0.40;99.90
38866;DHT22;62686;48.984;8.394;2023-03-01T08:07:33;0.50;99.90
38866;DHT22;62686;48.984;8.394;2023-03-01T08:10:01;0.50;99.90
38866;DHT22;62686;48.984;8.394;2023-03-01T08:12:29;0.70;99.90
38866;DHT22;62686;48.984;8.394;2023-03-01T08:14:58;0.80;99.90
38866;DHT22;62686;48.984;8.394;2023-03-01T08:17:26;0.90;99.90
38866;DHT22;62686;48.984;8.394;2023-03-01T08:19:54;0.90;99.90
38866;DHT22;62686;48.984;8.394;2023-03-01T08:22:24;1.00;99.90
38866;DHT22;62686;48.984;8.394;2023-03-01T08:24:52;1.00;99.90
38866;DHT22;62686;48.984;8.394;2023-03-01T08:27:22;1.10;99.90
38866;DHT22;62686;48.984;8.394;2023-03-01T08:29:51;1.10;99.90
38866;DHT22;62686;48.984;8.394;2023-03-01T08:32:19;1.10;99.90
38866;DHT22;62686;48.984;8.394;2023-03-01T08:34:48;1.30;99.90
38866;DHT22;62686;48.984;8.394;2023-03-01T08:37:16;1.40;99.90
38866;DHT22;62686;48.984;8.394;2023-03-01T08:39:46;1.40;99.90
38866;DHT22;62686;48.984;8.394;2023-03-01T08:42:15;1.40;99.90
38866;DHT22;62686;48.984;8.394;2023-03-01T08:44:43;1.50;99.90
38866;DHT22;62686;48.984;8.394;2023-03-01T08:47:12;1.60;99.90
38866;DHT22;62686;48.984;8.394;2023-03-01T08:49:41;1.70;99.90
38866;DHT22;62686;48.984;8.394;2023-03-01T08:52:09;1.80;99.90
38866;DHT22;62686;48.984;8.394;2023-03-01T08:54:38;2.00;99.90
38866;DHT22;62686;48.984;8.394;2023-03-01T08:57:07;2.90;99.90
38866;DHT22;62686;48.984;8.394;2023-03-01T08:59:36;4.60;99.90
38866;DHT22;62686;48.984;8.394;2023-03-01T09:02:05;5.80;99.90
38866;DHT22;62686;48.984;8.394;2023-03-01T09:04:33;6.80;99.90
38866;DHT22;62686;48.984;8.394;2023-03-01T09:07:02;7.30;99.90
38866;DHT22;62686;48.984;8.394;2023-03-01T09:09:30;7.80;99.90
38866;DHT22;62686;48.984;8.394;2023-03-01T09:11:58;7.20;99.90
38866;DHT22;62686;48.984;8.394;2023-03-01T09:14:28;7.00;99.90
38866;DHT22;62686;48.984;8.394;2023-03-01T09:16:56;7.10;99.90
38866;DHT22;62686;48.984;8.394;2023-03-01T09:19:24;6.90;99.90
38866;DHT22;62686;48.984;8.394;2023-03-01T09:21:53;6.90;99.90
38866;DHT22;62686;48.984;8.394;2023-03-01T09:24:23;7.50;99.90
38866;DHT22;62686;48.984;8.394;2023-03-01T09:26:55;8.40;99.90
38866;DHT22;62686;48.984;8.394;2023-03-01T09:29:24;8.30;99.90
38866;DHT22;62686;48.984;8.394;2023-03-01T09:31:54;7.90;99.90
38866;DHT22;62686;48.984;8.394;2023-03-01T09:34:23;7.20;99.90
38866;DHT22;62686;48.984;8.394;2023-03-01T09:36:51;6.60;99.90
38866;DHT22;62686;48.984;8.394;2023-03-01T09:39:20;6.30;99.90
38866;DHT22;62686;48.984;8.394;2023-03-01T09:41:53;6.30;99.90
38866;DHT22;62686;48.984;8.394;2023-03-01T09:44:31;5.90;99.90
38866;DHT22;62686;48.984;8.394;2023-03-01T09:47:03;5.60;99.90
38866;DHT22;62686;48.984;8.394;2023-03-01T09:49:33;5.30;99.90
38866;DHT22;62686;48.984;8.394;2023-03-01T09:52:12;5.10;99.90
38866;DHT22;62686;48.984;8.394;2023-03-01T09:54:41;5.00;99.90
38866;DHT22;62686;48.984;8.394;2023-03-01T09:57:18;4.80;99.90
38866;DHT22;62686;48.984;8.394;2023-03-01T09:59:57;4.80;99.90
38866;DHT22;62686;48.984;8.394;2023-03-01T10:02:38;4.60;99.90
38866;DHT22;62686;48.984;8.394;2023-03-01T10:05:26;4.50;99.90
38866;DHT22;62686;48.984;8.394;2023-03-01T10:08:06;4.30;99.90
38866;DHT22;62686;48.984;8.394;2023-03-01T10:10:44;4.40;99.90
38866;DHT22;62686;48.984;8.394;2023-03-01T10:13:17;4.60;99.90
38866;DHT22;62686;48.984;8.394;2023-03-01T10:15:50;4.60;99.90
38866;DHT22;62686;48.984;8.394;2023-03-01T10:18:26;4.50;99.90
38866;DHT22;62686;48.984;8.394;2023-03-01T10:20:57;4.40;99.90
38866;DHT22;62686;48.984;8.394;2023-03-01T10:23:29;4.50;99.90
38866;DHT22;62686;48.984;8.394;2023-03-01T10:26:10;4.60;99.90
38866;DHT22;62686;48.984;8.394;2023-03-01T10:28:47;4.80;99.90
38866;DHT22;62686;48.984;8.394;2023-03-01T10:31:20;5.00;99.90
38866;DHT22;62686;48.984;8.394;2023-03-01T10:33:54;5.00;99.90
38866;DHT22;62686;48.984;8.394;2023-03-01T10:36:24;5.10;99.90
38866;DHT22;62686;48.984;8.394;2023-03-01T10:38:53;5.10;99.90
38866;DHT22;62686;48.984;8.394;2023-03-01T10:41:25;5.30;99.90
38866;DHT22;62686;48.984;8.394;2023-03-01T10:43:55;5.20;99.90
38866;DHT22;62686;48.984;8.394;2023-03-01T10:46:26;5.30;99.90
38866;DHT22;62686;48.984;8.394;2023-03-01T10:49:14;5.40;99.90
38866;DHT22;62686;48.984;8.394;2023-03-01T10:51:44;5.50;99.90
38866;DHT22;62686;48.984;8.394;2023-03-01T10:54:19;5.60;99.90
38866;DHT22;62686;48.984;8.394;2023-03-01T10:56:50;5.60;99.90
38866;DHT22;62686;48.984;8.394;2023-03-01T10:59:25;5.70;99.90
38866;DHT22;62686;48.984;8.394;2023-03-01T11:02:09;5.80;99.90
38866;DHT22;62686;48.984;8.394;2023-03-01T11:04:59;5.90;99.90
38866;DHT22;62686;48.984;8.394;2023-03-01T11:07:28;5.80;99.90
38866;DHT22;62686;48.984;8.394;2023-03-01T11:09:57;5.80;99.90
38866;DHT22;62686;48.984;8.394;2023-03-01T11:12:25;5.90;99.90
38866;DHT22;62686;48.984;8.394;2023-03-01T11:14:57;6.10;99.90
38866;DHT22;62686;48.984;8.394;2023-03-01T11:17:28;6.30;99.90
38866;DHT22;62686;48.984;8.394;2023-03-01T11:20:06;6.30;99.90
38866;DHT22;62686;48.984;8.394;2023-03-01T11:22:47;6.50;99.90
38866;DHT22;62686;48.984;8.394;2023-03-01T11:25:18;6.80;99.90
38866;DHT22;62686;48.984;8.394;2023-03-01T11:27:47;6.80;99.90
38866;DHT22;62686;48.984;8.394;2023-03-01T11:30:19;6.90;99.90
38866;DHT22;62686;48.984;8.394;2023-03-01T11:32:53;7.10;99.90
38866;DHT22;62686;48.984;8.394;2023-03-01T11:35:27;7.20;99.90
38866;DHT22;62686;48.984;8.394;2023-03-01T11:38:04;7.30;99.90
38866;DHT22;62686;48.984;8.394;2023-03-01T11:40:39;7.70;99.90
38866;DHT22;62686;48.984;8.394;2023-03-01T11:43:15;8.40;99.90
38866;DHT22;62686;48.984;8.394;2023-03-01T11:48:50;9.30;99.90
38866;DHT22;62686;48.984;8.394;2023-03-01T11:51:29;10.60;99.90
38866;DHT22;62686;48.984;8.394;2023-03-01T11:54:10;11.40;99.90
38866;DHT22;62686;48.984;8.394;2023-03-01T11:56:45;11.40;99.90
38866;DHT22;62686;48.984;8.394;2023-03-01T11:59:29;11.40;99.90
38866;DHT22;62686;48.984;8.394;2023-03-01T12:02:23;11.70;99.90
38866;DHT22;62686;48.984;8.394;2023-03-01T12:05:20;12.50;99.90
38866;DHT22;62686;48.984;8.394;2023-03-01T12:07:59;13.20;99.20
38866;DHT22;62686;48.984;8.394;2023-03-01T12:10:34;12.70;98.40
38866;DHT22;62686;48.984;8.394;2023-03-01T12:13:17;12.80;98.30
38866;DHT22;62686;48.984;8.394;2023-03-01T12:22:28;12.30;96.80
38866;DHT22;62686;48.984;8.394;2023-03-01T12:25:22;12.60;97.50
38866;DHT22;62686;48.984;8.394;2023-03-01T12:33:57;13.30;96.30
38866;DHT22;62686;48.984;8.394;2023-03-01T12:36:47;13.40;94.40
38866;DHT22;62686;48.984;8.394;2023-03-01T12:39:38;13.10;94.60
38866;DHT22;62686;48.984;8.394;2023-03-01T12:42:19;12.50;96.40
38866;DHT22;62686;48.984;8.394;2023-03-01T12:44:59;12.20;95.60
38866;DHT22;62686;48.984;8.394;2023-03-01T12:47:49;12.00;96.30
38866;DHT22;62686;48.984;8.394;2023-03-01T12:50:25;11.80;96.70
38866;DHT22;62686;48.984;8.394;2023-03-01T12:52:56;12.00;96.30
38866;DHT22;62686;48.984;8.394;2023-03-01T12:55:29;11.70;96.60
38866;DHT22;62686;48.984;8.394;2023-03-01T12:58:06;11.30;97.00
38866;DHT22;62686;48.984;8.394;2023-03-01T13:00:41;11.20;96.60
38866;DHT22;62686;48.984;8.394;2023-03-01T13:03:26;11.00;98.30
38866;DHT22;62686;48.984;8.394;2023-03-01T13:06:07;11.20;97.90
38866;DHT22;62686;48.984;8.394;2023-03-01T13:08:43;11.30;97.50
38866;DHT22;62686;48.984;8.394;2023-03-01T13:11:17;11.20;96.60
38866;DHT22;62686;48.984;8.394;2023-03-01T13:13:47;11.40;97.50
38866;DHT22;62686;48.984;8.394;2023-03-01T13:16:38;10.80;97.20
38866;DHT22;62686;48.984;8.394;2023-03-01T13:19:13;10.40;97.80
38866;DHT22;62686;48.984;8.394;2023-03-01T13:21:43;10.30;98.60
38866;DHT22;62686;48.984;8.394;2023-03-01T13:24:25;10.80;98.10
38866;DHT22;62686;48.984;8.394;2023-03-01T13:27:11;11.00;97.50
38866;DHT22;62686;48.984;8.394;2023-03-01T13:29:51;11.10;97.30
38866;DHT22;62686;48.984;8.394;2023-03-01T13:32:21;10.90;97.60
38866;DHT22;62686;48.984;8.394;2023-03-01T13:41:48;12.40;96.00
38866;DHT22;62686;48.984;8.394;2023-03-01T13:44:24;12.50;94.70
38866;DHT22;62686;48.984;8.394;2023-03-01T13:46:57;12.90;94.80
38866;DHT22;62686;48.984;8.394;2023-03-01T13:49:28;12.40;94.20
38866;DHT22;62686;48.984;8.394;2023-03-01T13:55:19;12.90;94.70
38866;DHT22;62686;48.984;8.394;2023-03-01T13:57:50;14.10;94.00
38866;DHT22;62686;48.984;8.394;2023-03-01T14:00:30;13.80;92.50
38866;DHT22;62686;48.984;8.394;2023-03-01T14:03:08;13.00;93.50
38866;DHT22;62686;48.984;8.394;2023-03-01T14:05:38;13.30;94.10
38866;DHT22;62686;48.984;8.394;2023-03-01T14:08:20;13.30;93.30
38866;DHT22;62686;48.984;8.394;2023-03-01T14:11:20;13.60;94.20
38866;DHT22;62686;48.984;8.394;2023-03-01T14:14:08;13.10;93.30
38866;DHT22;62686;48.984;8.394;2023-03-01T14:16:44;13.50;93.80
38866;DHT22;62686;48.984;8.394;2023-03-01T14:19:18;12.80;93.20
38866;DHT22;62686;48.984;8.394;2023-03-01T14:22:00;12.80;93.00
38866;DHT22;62686;48.984;8.394;2023-03-01T14:24:35;12.30;93.50
38866;DHT22;62686;48.984;8.394;2023-03-01T14:27:11;12.00;94.50
38866;DHT22;62686;48.984;8.394;2023-03-01T14:29:40;12.10;94.30
38866;DHT22;62686;48.984;8.394;2023-03-01T14:32:09;12.50;94.30
38866;DHT22;62686;48.984;8.394;2023-03-01T14:34:44;12.30;93.50
38866;DHT22;62686;48.984;8.394;2023-03-01T14:37:20;11.70;94.10
38866;DHT22;62686;48.984;8.394;2023-03-01T14:39:49;11.60;95.60
38866;DHT22;62686;48.984;8.394;2023-03-01T14:42:19;11.00;95.10
38866;DHT22;62686;48.984;8.394;2023-03-01T14:44:48;10.50;96.10
38866;DHT22;62686;48.984;8.394;2023-03-01T14:47:25;10.00;96.30
38866;DHT22;62686;48.984;8.394;2023-03-01T14:49:58;9.30;97.60
38866;DHT22;62686;48.984;8.394;2023-03-01T14:52:33;8.90;99.20
38866;DHT22;62686;48.984;8.394;2023-03-01T14:55:04;8.50;99.80
38866;DHT22;62686;48.984;8.394;2023-03-01T14:57:33;8.20;99.90
38866;DHT22;62686;48.984;8.394;2023-03-01T15:00:05;8.10;99.90
38866;DHT22;62686;48.984;8.394;2023-03-01T15:02:35;8.00;99.90
38866;DHT22;62686;48.984;8.394;2023-03-01T15:05:08;7.90;99.90
38866;DHT22;62686;48.984;8.394;2023-03-01T15:07:39;7.90;99.90
38866;DHT22;62686;48.984;8.394;2023-03-01T15:10:17;7.90;99.90
38866;DHT22;62686;48.984;8.394;2023-03-01T15:12:47;7.90;99.90
38866;DHT22;62686;48.984;8.394;2023-03-01T15:15:34;7.80;99.90
38866;DHT22;62686;48.984;8.394;2023-03-01T15:18:06;7.80;99.90
38866;DHT22;62686;48.984;8.394;2023-03-01T15:20:36;7.80;99.90
38866;DHT22;62686;48.984;8.394;2023-03-01T15:23:05;7.80;99.90
38866;DHT22;62686;48.984;8.394;2023-03-01T15:25:33;7.80;99.90
38866;DHT22;62686;48.984;8.394;2023-03-01T15:28:03;7.70;99.90
38866;DHT22;62686;48.984;8.394;2023-03-01T15:30:33;7.80;99.90
38866;DHT22;62686;48.984;8.394;2023-03-01T15:33:27;7.70;99.90
38866;DHT22;62686;48.984;8.394;2023-03-01T15:35:58;7.70;99.90
38866;DHT22;62686;48.984;8.394;2023-03-01T15:38:31;7.60;99.90
38866;DHT22;62686;48.984;8.394;2023-03-01T15:41:01;7.60;99.90
38866;DHT22;62686;48.984;8.394;2023-03-01T15:43:41;7.60;99.90
38866;DHT22;62686;48.984;8.394;2023-03-01T15:46:20;7.60;99.90
38866;DHT22;62686;48.984;8.394;2023-03-01T15:48:52;7.50;99.90
38866;DHT22;62686;48.984;8.394;2023-03-01T15:51:29;7.50;99.90
38866;DHT22;62686;48.984;8.394;2023-03-01T15:53:59;7.50;99.90
38866;DHT22;62686;48.984;8.394;2023-03-01T15:56:28;7.50;99.90
38866;DHT22;62686;48.984;8.394;2023-03-01T15:59:01;7.40;99.90
38866;DHT22;62686;48.984;8.394;2023-03-01T16:01:30;7.40;99.90
38866;DHT22;62686;48.984;8.394;2023-03-01T16:09:29;7.20;99.90
38866;DHT22;62686;48.984;8.394;2023-03-01T16:11:58;7.20;99.90
38866;DHT22;62686;48.984;8.394;2023-03-01T16:14:31;7.20;99.90
38866;DHT22;62686;48.984;8.394;2023-03-01T16:17:00;7.10;99.90
38866;DHT22;62686;48.984;8.394;2023-03-01T16:19:30;7.10;99.90
38866;DHT22;62686;48.984;8.394;2023-03-01T16:21:59;7.00;99.90
38866;DHT22;62686;48.984;8.394;2023-03-01T16:24:28;7.00;99.90
38866;DHT22;62686;48.984;8.394;2023-03-01T16:26:56;7.00;99.90
38866;DHT22;62686;48.984;8.394;2023-03-01T16:29:25;7.00;99.90
38866;DHT22;62686;48.984;8.394;2023-03-01T16:31:53;6.90;99.90
38866;DHT22;62686;48.984;8.394;2023-03-01T16:34:21;7.00;99.90
38866;DHT22;62686;48.984;8.394;2023-03-01T16:39:25;6.70;99.90
38866;DHT22;62686;48.984;8.394;2023-03-01T16:48:06;6.50;99.90
38866;DHT22;62686;48.984;8.394;2023-03-01T16:50:34;6.50;99.90